Woodinville, WA

4:37 AM PDT on July 27, 2016 (GMT -0700)
Cottage Lake | | Change Station

Elev 338 ft 47.75 °N, 122.10 °W | Updated 1 minute ago

Fog
Fog
55.8 °F
Feels Like 55.8 °F
N
0.0
Wind Variable Wind from NNW
Gusts 0.0 mph

Today
High -- | Low -- °F
--% Chance of Precip.
Yesterday
High -- | Low -- °F
Precip. -- in
Pressure 30.13 in
Visibility 0.5 miles
Clouds
Dew Point 54 °F
Humidity 94%
Rainfall 0.00 in
Snow Depth Not available.
5:39 AM 8:49 PM
Last Quarter, 44% visible
SPECI KPAE 271132Z AUTO 01003KT 1/2SM R16R/1400V2400FT FG VV001 13/12 A3013 RMK AO2 T01280117
Pressure 30.13 in
Visibility 0.5 miles
Clouds
Dew Point 54 °F
Humidity 94%
Rainfall 0.00 in
Snow Depth Not available.
5:39 AM 8:49 PM
Last Quarter, 44% visible
SPECI KPAE 271132Z AUTO 01003KT 1/2SM R16R/1400V2400FT FG VV001 13/12 A3013 RMK AO2 T01280117

10-Day Weather Forecast

Almanac

Astronomy

Jul. 27, 2016 Rise Set
Actual Time
Civil Twilight
Nautical Twilight
Astronomical Twilight
Moon
Length of Visible Light
Length of Day
Tomorrow will be .
, % of the Moon is Illuminated

Today's Extremes

State Highs State Lows

Community

WunderPhotos

Upload Photos

1,927,828 photos uploaded!

WunderBlog® & News

Nearby

Air Quality

  Air Quality AQ Index Pollutant
Not available.

Snow Depth

Station Depth Elevation

Earthquake Activity

City Distance Mag. Time & Date
Minimum magnitude displayed is 2.5.

Coastal Water Temperatures

Place Temperature

Stations

Nearby Weather Stations

Station Location Temp. Windchill Dew Point Humidity Wind Precip. Elev Updated Type
                   

Watches & Warnings

There are currently no watches in effect.